Time;durP1;ratioP1;P1;durP2;ratioP2;P2;SDS_P1;SDS_P2;PMS_P1;PMS_P2;Temp;Humidity;BMP_temperature;BMP_pressure;BME280_temperature;BME280_humidity;BME280_pressure;Samples;Min_cycle;Max_cycle;Signal;HPM_P1;HPM_P2
2023/02/06 00:02:23;;;;;;;;;;;;;;;8.69;100.00;101772.13;4974160;28;19934;-92
2023/02/06 00:04:51;;;;;;;;;;;;;;;8.70;100.00;101771.25;4957531;28;20437;-89
2023/02/06 08:47:07;;;;;;;;;;;;;;;8.57;100.00;101794.19;5738232;23;19973;-92
2023/02/06 08:49:33;;;;;;;;;;;;;;;8.58;100.00;101795.94;4960141;29;19926;-91
2023/02/06 08:51:58;;;;;;;;;;;;;;;8.58;100.00;101789.78;4961419;29;20507;-88
2023/02/06 08:54:23;;;;;;;;;;;;;;;8.57;100.00;101788.91;4961464;29;19927;-88
2023/02/06 08:56:50;;;;;;;;;;;;;;;8.57;100.00;101788.00;4961222;28;20005;-90
2023/02/06 08:59:16;;;;;;;;;;;;;;;8.58;100.00;101784.50;4959885;28;19923;-90
2023/02/06 09:01:44;;;;;;;;;;;;;;;8.58;100.00;101789.78;4959725;28;20199;-90
2023/02/06 09:04:30;;;;;;;;;;;;;;;8.60;100.00;101793.28;4961403;28;19981;-90
2023/02/06 09:06:58;;;;;;;;;;;;;;;8.59;100.00;101788.91;4961457;28;19922;-88
2023/02/06 09:09:25;;;;;;;;;;;;;;;8.59;100.00;101802.97;4961374;29;19923;-88
2023/02/06 09:11:55;;;;;;;;;;;;;;;8.60;100.00;101801.22;4976045;28;19961;-91
2023/02/06 09:14:28;;;;;;;;;;;;;;;8.60;100.00;101803.84;4961407;28;20310;-92
2023/02/06 09:17:02;;;;;;;;;;;;;;;8.60;100.00;101788.00;4959832;28;19919;-90
2023/02/06 09:19:27;;;;;;;;;;;;;;;8.61;100.00;101797.69;4959961;29;19918;-93
2023/02/06 09:22:00;;;;;;;;;;;;;;;8.59;100.00;101795.06;4961699;29;19925;-91
2023/02/06 09:24:26;;;;;;;;;;;;;;;8.60;100.00;101793.28;4961442;29;20009;-95
2023/02/06 09:26:52;;;;;;;;;;;;;;;8.59;100.00;101791.53;4961462;29;20349;-95
2023/02/06 09:29:18;;;;;;;;;;;;;;;8.58;100.00;101781.84;4961339;29;20021;-90
2023/02/06 09:31:43;;;;;;;;;;;;;;;8.58;100.00;101784.50;4960411;29;19970;-92
2023/02/06 09:34:09;;;;;;;;;;;;;;;8.61;100.00;101789.78;4958152;28;20370;-89
2023/02/06 09:36:36;;;;;;;;;;;;;;;8.59;100.00;101797.69;4956865;29;19926;-92
2023/02/06 09:39:03;;;;;;;;;;;;;;;8.59;100.00;101791.53;4957875;29;19925;-91
2023/02/06 09:41:30;;;;;;;;;;;;;;;8.60;100.00;101794.19;4959221;29;20369;-95
2023/02/06 09:44:03;;;;;;;;;;;;;;;8.60;100.00;101788.91;4959357;29;19942;-95
2023/02/06 09:46:48;;;;;;;;;;;;;;;8.61;100.00;101788.00;4956704;29;19946;-88
2023/02/06 09:49:21;;;;;;;;;;;;;;;8.62;100.00;101788.91;4927565;29;20282;-94
2023/02/06 09:52:22;;;;;;;;;;;;;;;8.61;100.00;101790.63;4956842;29;19927;-93
2023/02/06 09:55:11;;;;;;;;;;;;;;;8.61;100.00;101789.78;4956732;29;19920;-93
2023/02/06 09:57:48;;;;;;;;;;;;;;;8.59;100.00;101789.78;4957990;29;19926;-93
2023/02/06 10:00:32;;;;;;;;;;;;;;;8.60;100.00;101794.19;4958123;29;19918;-94
2023/02/06 10:03:31;;;;;;;;;;;;;;;8.59;100.00;101791.53;4955295;29;19941;-93
2023/02/06 10:06:11;;;;;;;;;;;;;;;8.61;100.00;101795.06;4956325;29;19926;-91
2023/02/06 10:08:42;;;;;;;;;;;;;;;8.60;100.00;101788.91;4957365;29;19969;-91
2023/02/06 10:11:16;;;;;;;;;;;;;;;8.60;100.00;101796.81;4957655;29;19919;-88
2023/02/06 10:13:48;;;;;;;;;;;;;;;8.59;100.00;101796.84;4957289;29;19925;-88
2023/02/06 10:16:36;;;;;;;;;;;;;;;8.60;100.00;101788.00;4954783;29;19926;-88
2023/02/06 10:19:03;;;;;;;;;;;;;;;8.60;100.00;101795.94;4957205;28;19926;-93
2023/02/06 10:21:58;;;;;;;;;;;;;;;8.60;100.00;101793.28;4955989;29;19985;-91
2023/02/06 10:24:40;;;;;;;;;;;;;;;8.59;100.00;101797.69;4943548;29;19918;-93
2023/02/06 10:27:14;;;;;;;;;;;;;;;8.58;100.00;101800.34;4955923;29;20279;-87
2023/02/06 10:29:46;;;;;;;;;;;;;;;8.59;100.00;101787.13;4955739;29;19965;-85
2023/02/06 10:32:25;;;;;;;;;;;;;;;8.59;100.00;101786.25;4955541;29;19923;-89
2023/02/06 10:34:51;;;;;;;;;;;;;;;8.58;100.00;101773.91;4955416;29;19918;-86
2023/02/06 10:37:21;;;;;;;;;;;;;;;8.58;100.00;101780.06;4956642;29;19918;-87
2023/02/06 10:39:49;;;;;;;;;;;;;;;8.58;100.00;101780.06;4956881;29;19919;-87
2023/02/06 10:42:22;;;;;;;;;;;;;;;8.60;100.00;101780.06;4956705;29;19918;-89
2023/02/06 10:45:00;;;;;;;;;;;;;;;8.60;100.00;101769.50;4956496;28;19941;-92
2023/02/06 10:47:43;;;;;;;;;;;;;;;8.60;100.00;101772.16;4957186;28;19946;-90
2023/02/06 10:50:23;;;;;;;;;;;;;;;8.59;100.00;101767.75;4975156;28;19930;-92
2023/02/06 10:52:49;;;;;;;;;;;;;;;8.59;100.00;101759.84;4975923;28;19922;-91
2023/02/06 10:55:15;;;;;;;;;;;;;;;8.61;100.00;101747.50;4975712;28;19948;-89
2023/02/06 10:57:41;;;;;;;;;;;;;;;8.60;100.00;101743.06;4975816;28;19927;-89
2023/02/06 11:00:11;;;;;;;;;;;;;;;8.59;100.00;101741.34;4975731;28;19918;-90
2023/02/06 11:02:45;;;;;;;;;;;;;;;8.59;100.00;101733.41;4972985;28;19918;-90
2023/02/06 11:05:17;;;;;;;;;;;;;;;8.59;100.00;101733.41;4975699;28;19922;-89
2023/02/06 11:07:45;;;;;;;;;;;;;;;8.61;100.00;101731.63;4975601;28;19925;-89
2023/02/06 11:10:21;;;;;;;;;;;;;;;8.60;100.00;101724.59;4975623;28;20016;-89
2023/02/06 11:12:53;;;;;;;;;;;;;;;8.60;100.00;101716.66;4958057;28;20008;-89
2023/02/06 11:15:24;;;;;;;;;;;;;;;8.60;100.00;101719.28;4975579;28;19929;-90
2023/02/06 11:17:51;;;;;;;;;;;;;;;8.59;100.00;101707.84;4974279;28;19945;-90
2023/02/06 11:20:20;;;;;;;;;;;;;;;8.58;100.00;101705.22;4974304;28;19925;-91
2023/02/06 11:22:46;;;;;;;;;;;;;;;8.58;100.00;101707.88;4958168;28;19925;-94
2023/02/06 11:25:21;;;;;;;;;;;;;;;8.59;100.00;101696.41;4958065;28;19918;-90
2023/02/06 11:27:46;;;;;;;;;;;;;;;8.58;100.00;101697.28;4975474;28;20016;-89
2023/02/06 11:30:37;;;;;;;;;;;;;;;8.58;100.00;101695.53;4975439;28;19957;-93
2023/02/06 11:33:15;;;;;;;;;;;;;;;8.59;100.00;101691.13;4970088;28;19918;-89
2023/02/06 11:35:47;;;;;;;;;;;;;;;8.58;100.00;101690.22;4957798;28;19925;-92
2023/02/06 11:38:12;;;;;;;;;;;;;;;8.58;100.00;101674.38;4975229;28;19918;-91
2023/02/06 11:40:37;;;;;;;;;;;;;;;8.60;100.00;101677.03;4975119;28;19925;-89
2023/02/06 11:43:08;;;;;;;;;;;;;;;8.60;100.00;101679.66;4975248;28;20378;-92
2023/02/06 11:45:54;;;;;;;;;;;;;;;;;;;;;
2023/02/06 11:48:30;;;;;;;;;;;;;;;8.60;100.00;101677.91;4974527;28;19922;-88
2023/02/06 11:50:56;;;;;;;;;;;;;;;8.61;100.00;101676.16;4975014;28;19953;-89
2023/02/06 11:53:24;;;;;;;;;;;;;;;8.61;100.00;101676.16;4957407;28;19977;-88
2023/02/06 11:56:00;;;;;;;;;;;;;;;8.61;100.00;101668.22;4974342;28;19918;-88
2023/02/06 11:58:26;;;;;;;;;;;;;;;8.62;100.00;101664.69;4974604;28;20389;-90
2023/02/06 12:00:51;;;;;;;;;;;;;;;8.61;100.00;101669.09;4973285;28;19925;-92
2023/02/06 12:03:31;;;;;;;;;;;;;;;8.62;100.00;101675.28;4974826;28;19945;-89
2023/02/06 12:06:01;;;;;;;;;;;;;;;8.62;100.00;101680.56;4974864;28;19918;-92
2023/02/06 12:08:53;;;;;;;;;;;;;;;8.60;100.00;101684.94;4957522;28;20255;-90
2023/02/06 12:11:22;;;;;;;;;;;;;;;8.61;100.00;101679.66;4953398;28;19969;-93
2023/02/06 12:13:51;;;;;;;;;;;;;;;8.61;100.00;101678.78;4974815;28;20333;-89
2023/02/06 12:16:16;;;;;;;;;;;;;;;8.61;100.00;101679.66;4955981;28;19918;-87
2023/02/06 12:18:44;;;;;;;;;;;;;;;8.61;100.00;101670.84;4957440;28;19918;-88
2023/02/06 12:21:23;;;;;;;;;;;;;;;8.61;100.00;101666.44;4957223;28;20439;-88
2023/02/06 12:23:52;;;;;;;;;;;;;;;8.61;100.00;101669.09;4974270;28;19925;-87
2023/02/06 12:26:19;;;;;;;;;;;;;;;8.62;100.00;101668.22;4974406;28;19925;-88
2023/02/06 12:28:58;;;;;;;;;;;;;;;8.63;100.00;101661.16;4957038;28;19921;-88
2023/02/06 12:31:23;;;;;;;;;;;;;;;8.63;100.00;101653.22;4967064;28;19922;-89
2023/02/06 12:33:54;;;;;;;;;;;;;;;8.63;100.00;101646.19;4974309;28;20005;-86
2023/02/06 12:36:28;;;;;;;;;;;;;;;8.63;100.00;101643.56;4972926;28;19918;-89
2023/02/06 12:39:14;;;;;;;;;;;;;;;8.64;100.00;101641.78;4973117;28;19925;-92
2023/02/06 12:41:39;;;;;;;;;;;;;;;8.64;100.00;101636.50;4974284;28;19915;-91
2023/02/06 12:44:04;;;;;;;;;;;;;;;8.64;100.00;101626.78;4973028;28;19918;-90
2023/02/06 12:46:30;;;;;;;;;;;;;;;8.64;100.00;101625.91;4971384;28;19915;-89
2023/02/06 12:49:11;;;;;;;;;;;;;;;8.63;100.00;101617.13;4953574;29;19934;-90
2023/02/06 12:51:39;;;;;;;;;;;;;;;8.64;100.00;101615.34;4937737;29;19919;-89
2023/02/06 12:54:14;;;;;;;;;;;;;;;8.64;100.00;101604.78;4937723;29;20001;-91
2023/02/06 12:56:50;;;;;;;;;;;;;;;8.62;100.00;101591.56;4937548;29;20428;-91
2023/02/06 12:59:16;;;;;;;;;;;;;;;8.63;100.00;101592.44;4937714;29;19987;-89
2023/02/06 13:01:41;;;;;;;;;;;;;;;8.63;100.00;101589.81;4936199;29;19919;-90
2023/02/06 13:04:26;;;;;;;;;;;;;;;8.64;100.00;101599.50;4937450;29;19964;-89
2023/02/06 13:07:10;;;;;;;;;;;;;;;8.63;100.00;101600.38;4937716;29;20041;-94
2023/02/06 13:12:51;;;;;;;;;;;;;;;8.62;100.00;101596.00;4951123;29;19918;-89
2023/02/06 13:15:21;;;;;;;;;;;;;;;8.62;100.00;101586.28;4941596;29;19978;-92
2023/02/06 13:17:46;;;;;;;;;;;;;;;8.63;100.00;101595.09;4939921;29;19923;-88
2023/02/06 13:20:15;;;;;;;;;;;;;;;8.64;100.00;101586.28;4940961;29;19925;-87
2023/02/06 13:22:43;;;;;;;;;;;;;;;8.63;100.00;101585.41;4941044;29;19918;-88
2023/02/06 13:25:27;;;;;;;;;;;;;;;8.64;100.00;101568.66;4940905;29;19923;-90
2023/02/06 13:27:53;;;;;;;;;;;;;;;8.65;100.00;101572.19;4958214;29;19984;-90
2023/02/06 13:30:28;;;;;;;;;;;;;;;8.67;100.00;101565.13;4958084;29;19978;-88
2023/02/06 13:33:05;;;;;;;;;;;;;;;;;;;;;
2023/02/06 13:35:46;;;;;;;;;;;;;;;;;;;;;
2023/02/06 13:38:27;;;;;;;;;;;;;;;8.64;100.00;101557.22;4958096;29;19922;-87
2023/02/06 13:41:14;;;;;;;;;;;;;;;8.63;100.00;101564.28;4940383;29;20945;-89
2023/02/06 13:44:05;;;;;;;;;;;;;;;8.65;100.00;101561.63;4940462;29;19918;-89
2023/02/06 13:46:30;;;;;;;;;;;;;;;8.64;100.00;101559.84;4947313;29;20041;-90
2023/02/06 13:49:15;;;;;;;;;;;;;;;8.65;100.00;101545.78;4953972;28;20020;-87
2023/02/06 13:52:02;;;;;;;;;;;;;;;8.65;100.00;101554.56;4959509;28;19918;-88
2023/02/06 13:54:46;;;;;;;;;;;;;;;8.65;100.00;101538.72;4975749;28;19922;-89
2023/02/06 13:57:14;;;;;;;;;;;;;;;8.65;100.00;101540.47;4957975;28;19937;-91
2023/02/06 14:00:09;;;;;;;;;;;;;;;8.65;100.00;101545.78;4975793;28;19922;-94
2023/02/06 14:02:39;;;;;;;;;;;;;;;8.64;100.00;101541.38;4960875;28;19934;-93
2023/02/06 14:08:13;;;;;;;;;;;;;;;8.66;100.00;101542.22;4963633;28;19922;-91
2023/02/06 14:13:40;;;;;;;;;;;;;;;8.64;100.00;101534.28;4969887;28;19969;-90
2023/02/06 14:16:09;;;;;;;;;;;;;;;8.66;100.00;101531.66;4957615;28;19932;-91
2023/02/06 14:18:43;;;;;;;;;;;;;;;8.66;100.00;101532.53;4951518;28;19918;-93
2023/02/06 14:21:11;;;;;;;;;;;;;;;8.67;100.00;101538.69;4976150;28;19918;-92
2023/02/06 14:23:36;;;;;;;;;;;;;;;8.66;100.00;101540.47;4959931;28;19918;-92
2023/02/06 14:26:11;;;;;;;;;;;;;;;8.65;100.00;101544.00;4943798;29;19922;-94
2023/02/06 14:28:45;;;;;;;;;;;;;;;8.66;100.00;101542.22;4977029;28;19918;-89
2023/02/06 14:31:34;;;;;;;;;;;;;;;8.65;100.00;101540.47;4975374;28;19921;-91
2023/02/06 14:34:09;;;;;;;;;;;;;;;8.65;100.00;101554.56;4969463;28;19922;-91
2023/02/06 14:36:34;;;;;;;;;;;;;;;8.64;100.00;101552.78;4957475;28;19970;-89
2023/02/06 14:39:19;;;;;;;;;;;;;;;8.64;100.00;101554.56;4956606;28;19926;-90
2023/02/06 14:41:44;;;;;;;;;;;;;;;8.65;100.00;101559.84;4976362;28;19921;-87
2023/02/06 14:44:10;;;;;;;;;;;;;;;8.65;100.00;101554.56;4969250;28;19918;-86
2023/02/06 14:46:37;;;;;;;;;;;;;;;8.65;100.00;101544.00;4965670;28;20342;-86
2023/02/06 14:49:03;;;;;;;;;;;;;;;8.65;100.00;101545.78;4976226;28;19980;-92
2023/02/06 14:51:36;;;;;;;;;;;;;;;8.65;100.00;101554.56;4975917;28;20324;-92
2023/02/06 14:54:08;;;;;;;;;;;;;;;8.66;100.00;101555.44;4958156;28;20662;-88
2023/02/06 14:56:35;;;;;;;;;;;;;;;8.67;100.00;101538.69;4958093;28;19918;-91
2023/02/06 14:59:27;;;;;;;;;;;;;;;8.67;100.00;101541.34;4958589;28;19925;-88
2023/02/06 15:04:48;;;;;;;;;;;;;;;8.65;100.00;101540.47;4943461;29;20541;-93
2023/02/06 15:07:39;;;;;;;;;;;;;;;8.65;100.00;101544.00;4961383;28;19922;-90
2023/02/06 15:10:14;;;;;;;;;;;;;;;8.64;100.00;101542.22;4962727;28;19957;-91
2023/02/06 15:13:02;;;;;;;;;;;;;;;;;;;;;
2023/02/06 15:15:39;;;;;;;;;;;;;;;8.64;100.00;101549.28;4975622;28;19918;-88
2023/02/06 15:18:05;;;;;;;;;;;;;;;8.63;100.00;101555.44;4956795;28;19976;-91
2023/02/06 15:20:36;;;;;;;;;;;;;;;8.63;100.00;101566.03;4975032;28;20001;-91
2023/02/06 15:23:03;;;;;;;;;;;;;;;8.63;100.00;101556.34;4957927;28;19974;-88
2023/02/06 15:25:34;;;;;;;;;;;;;;;8.64;100.00;101554.56;4975213;28;20377;-86
2023/02/06 15:28:03;;;;;;;;;;;;;;;8.63;100.00;101564.28;4974759;28;19926;-88
2023/02/06 15:30:30;;;;;;;;;;;;;;;8.64;100.00;101559.84;4974932;28;19976;-92
2023/02/06 15:33:03;;;;;;;;;;;;;;;8.64;100.00;101567.78;4955504;28;19922;-88
2023/02/06 15:35:33;;;;;;;;;;;;;;;8.63;100.00;101563.38;4957662;28;20384;-86
2023/02/06 15:38:09;;;;;;;;;;;;;;;8.64;100.00;101565.16;4957516;28;20293;-86
2023/02/06 15:40:46;;;;;;;;;;;;;;;;;;;;;
2023/02/06 15:43:15;;;;;;;;;;;;;;;8.63;100.00;101571.31;4970663;28;20292;-90
2023/02/06 15:45:41;;;;;;;;;;;;;;;8.62;100.00;101570.44;4974940;28;20350;-88
2023/02/06 15:48:19;;;;;;;;;;;;;;;8.63;100.00;101572.19;4973703;28;20005;-86
2023/02/06 15:51:13;;;;;;;;;;;;;;;8.62;100.00;101556.34;4974251;28;19928;-89
2023/02/06 15:53:40;;;;;;;;;;;;;;;8.63;100.00;101558.09;4936887;28;19922;-89
2023/02/06 15:56:07;;;;;;;;;;;;;;;8.64;100.00;101546.66;4956453;28;19980;-89
2023/02/06 15:58:32;;;;;;;;;;;;;;;8.63;100.00;101552.81;4957443;28;19957;-90
2023/02/06 16:01:01;;;;;;;;;;;;;;;8.63;100.00;101558.09;4956391;28;19955;-90
2023/02/06 16:03:27;;;;;;;;;;;;;;;8.62;100.00;101553.72;4957401;28;19926;-88
2023/02/06 16:05:58;;;;;;;;;;;;;;;8.61;100.00;101552.81;4957571;28;19920;-91
2023/02/06 16:08:26;;;;;;;;;;;;;;;8.62;100.00;101553.72;4956379;28;19928;-90
2023/02/06 16:11:44;;;;;;;;;;;;;;;8.64;100.00;101557.22;4957420;28;19918;-88
2023/02/06 16:13:44;;;;;;;;;;;;;;;8.64;100.00;101551.94;4954260;29;19934;-89
2023/02/06 16:16:10;;;;;;;;;;;;;;;8.63;100.00;101550.16;4954527;28;19933;-90
2023/02/06 16:18:36;;;;;;;;;;;;;;;8.65;100.00;101558.97;4956863;28;20001;-91
2023/02/06 16:21:11;;;;;;;;;;;;;;;8.64;100.00;101560.72;4955941;28;20024;-91
2023/02/06 16:23:58;;;;;;;;;;;;;;;8.64;100.00;101557.22;4938238;29;20428;-89
2023/02/06 16:26:25;;;;;;;;;;;;;;;8.64;100.00;101565.16;4959902;28;19918;-89
2023/02/06 16:28:56;;;;;;;;;;;;;;;8.64;100.00;101567.78;4955837;28;19922;-92
2023/02/06 16:31:23;;;;;;;;;;;;;;;8.64;100.00;101575.72;4972459;28;20288;-89
2023/02/06 16:33:49;;;;;;;;;;;;;;;8.64;100.00;101573.94;4957119;28;19944;-90
2023/02/06 16:36:18;;;;;;;;;;;;;;;8.62;100.00;101565.16;4974755;28;19984;-87
2023/02/06 16:38:52;;;;;;;;;;;;;;;8.63;100.00;101568.66;4956615;28;19965;-94
2023/02/06 16:41:30;;;;;;;;;;;;;;;8.62;100.00;101569.56;4957507;28;19918;-88
2023/02/06 16:43:56;;;;;;;;;;;;;;;8.63;100.00;101568.66;4976442;28;20025;-93
2023/02/06 16:46:29;;;;;;;;;;;;;;;8.63;100.00;101569.56;4961579;28;19925;-90
2023/02/06 16:49:13;;;;;;;;;;;;;;;8.64;100.00;101581.00;4957765;29;19938;-89
2023/02/06 16:51:40;;;;;;;;;;;;;;;8.64;100.00;101581.00;4956128;29;20021;-92
2023/02/06 16:54:06;;;;;;;;;;;;;;;8.63;100.00;101579.22;4957561;29;19922;-91
2023/02/06 16:56:36;;;;;;;;;;;;;;;8.64;100.00;101583.63;4959071;29;19961;-89
2023/02/06 16:59:02;;;;;;;;;;;;;;;8.64;100.00;101583.63;4940664;29;20378;-91
2023/02/06 17:01:28;;;;;;;;;;;;;;;8.63;100.00;101582.78;4957202;29;19929;-88
2023/02/06 17:03:54;;;;;;;;;;;;;;;8.62;100.00;101588.94;4940636;29;19923;-90
2023/02/06 17:06:21;;;;;;;;;;;;;;;8.63;100.00;101589.81;4958694;29;19925;-91
2023/02/06 17:08:46;;;;;;;;;;;;;;;8.63;100.00;101603.00;4957432;29;19919;-90
2023/02/06 17:11:14;;;;;;;;;;;;;;;8.63;100.00;101596.00;4941114;29;20301;-88
2023/02/06 17:13:39;;;;;;;;;;;;;;;8.63;100.00;101597.72;4957809;29;20017;-89
2023/02/06 17:16:05;;;;;;;;;;;;;;;8.62;100.00;101601.28;4940501;29;20109;-90
2023/02/06 17:18:30;;;;;;;;;;;;;;;8.62;100.00;101598.63;4940216;29;19985;-91
2023/02/06 17:20:56;;;;;;;;;;;;;;;8.61;100.00;101595.09;4941302;29;20366;-91
2023/02/06 17:23:21;;;;;;;;;;;;;;;8.61;100.00;101594.22;4957979;29;19930;-91
2023/02/06 17:25:47;;;;;;;;;;;;;;;8.61;100.00;101599.50;4941007;29;19922;-89
2023/02/06 17:28:14;;;;;;;;;;;;;;;8.62;100.00;101598.63;4939991;29;19929;-86
2023/02/06 17:30:39;;;;;;;;;;;;;;;8.62;100.00;101596.00;4958170;29;19918;-90
2023/02/06 17:33:05;;;;;;;;;;;;;;;8.62;100.00;101601.28;4939772;29;20354;-91
2023/02/06 17:35:31;;;;;;;;;;;;;;;8.62;100.00;101601.28;4941265;29;19983;-93
2023/02/06 17:37:56;;;;;;;;;;;;;;;8.62;100.00;101598.63;4958442;29;19923;-89
2023/02/06 17:40:24;;;;;;;;;;;;;;;8.62;100.00;101598.63;4958281;29;19950;-91
2023/02/06 17:42:49;;;;;;;;;;;;;;;8.61;100.00;101597.75;4940832;29;20374;-89
2023/02/06 17:45:15;;;;;;;;;;;;;;;8.61;100.00;101599.50;4957177;29;19969;-89
2023/02/06 17:47:40;;;;;;;;;;;;;;;8.61;100.00;101597.75;4939895;29;19926;-90
2023/02/06 17:50:06;;;;;;;;;;;;;;;8.61;100.00;101600.38;4956794;29;19924;-89
2023/02/06 17:52:31;;;;;;;;;;;;;;;8.62;100.00;101601.28;4956951;29;20405;-88
2023/02/06 17:54:56;;;;;;;;;;;;;;;8.62;100.00;101601.28;4956848;28;19919;-90
2023/02/06 17:57:22;;;;;;;;;;;;;;;8.62;100.00;101601.28;4956347;29;19918;-90
2023/02/06 17:59:47;;;;;;;;;;;;;;;8.62;100.00;101598.63;4956326;29;20322;-89
2023/02/06 18:02:13;;;;;;;;;;;;;;;8.61;100.00;101596.88;4956356;29;19918;-90
2023/02/06 18:04:38;;;;;;;;;;;;;;;8.61;100.00;101600.38;4956708;29;20291;-89
2023/02/06 18:07:05;;;;;;;;;;;;;;;8.63;100.00;101593.34;4956383;29;19918;-89
2023/02/06 18:09:30;;;;;;;;;;;;;;;8.63;100.00;101581.88;4955648;29;19929;-88
2023/02/06 18:11:55;;;;;;;;;;;;;;;8.62;100.00;101591.56;4956209;29;20013;-89
2023/02/06 18:14:20;;;;;;;;;;;;;;;8.62;100.00;101578.38;4956493;29;20358;-89
2023/02/06 18:16:46;;;;;;;;;;;;;;;8.62;100.00;101585.44;4954873;29;19919;-91
2023/02/06 18:19:11;;;;;;;;;;;;;;;8.62;100.00;101585.44;4957309;29;19926;-90
2023/02/06 18:21:36;;;;;;;;;;;;;;;8.62;100.00;101569.56;4956040;29;19919;-90
2023/02/06 18:24:22;;;;;;;;;;;;;;;8.62;100.00;101559.88;4955867;29;20325;-88
2023/02/06 18:26:47;;;;;;;;;;;;;;;8.64;100.00;101565.16;4955414;29;19919;-88
2023/02/06 18:29:12;;;;;;;;;;;;;;;8.63;100.00;101560.72;4957407;29;19925;-89
2023/02/06 18:31:38;;;;;;;;;;;;;;;8.63;100.00;101560.72;4956204;29;20416;-90
2023/02/06 18:34:06;;;;;;;;;;;;;;;8.64;100.00;101554.56;4957050;29;19925;-90
2023/02/06 18:36:32;;;;;;;;;;;;;;;8.64;100.00;101546.66;4954978;29;19935;-90
2023/02/06 18:38:57;;;;;;;;;;;;;;;8.64;100.00;101551.94;4954856;29;19923;-89
2023/02/06 18:44:08;;;;;;;;;;;;;;;8.62;100.00;101536.09;4957136;29;19973;-89
2023/02/06 18:46:38;;;;;;;;;;;;;;;8.62;100.00;101524.66;4955289;29;19918;-89
2023/02/06 18:49:04;;;;;;;;;;;;;;;8.63;100.00;101523.75;4954834;28;20394;-89
2023/02/06 18:51:29;;;;;;;;;;;;;;;8.63;100.00;101526.38;4957417;28;19965;-90
2023/02/06 18:53:55;;;;;;;;;;;;;;;8.63;100.00;101535.22;4957482;28;19922;-91
2023/02/06 18:56:20;;;;;;;;;;;;;;;8.63;100.00;101539.59;4976108;28;19976;-91
2023/02/06 18:58:48;;;;;;;;;;;;;;;8.61;100.00;101542.25;4975577;28;19918;-89
2023/02/06 19:01:19;;;;;;;;;;;;;;;8.62;100.00;101532.56;4972582;28;20050;-92
2023/02/06 19:03:46;;;;;;;;;;;;;;;8.62;100.00;101532.56;4974551;28;19953;-87
2023/02/06 19:06:13;;;;;;;;;;;;;;;8.63;100.00;101534.31;4974954;28;19922;-89
2023/02/06 19:08:38;;;;;;;;;;;;;;;8.62;100.00;101524.66;4958456;28;19980;-92
2023/02/06 19:11:04;;;;;;;;;;;;;;;8.63;100.00;101534.31;4957317;28;20330;-87
2023/02/06 19:13:29;;;;;;;;;;;;;;;8.62;100.00;101522.00;4956979;28;19922;-88
2023/02/06 19:16:04;;;;;;;;;;;;;;;8.63;100.00;101526.38;4951973;28;19929;-88
2023/02/06 19:18:29;;;;;;;;;;;;;;;8.64;100.00;101520.22;4957015;28;19928;-89
2023/02/06 19:20:55;;;;;;;;;;;;;;;8.64;100.00;101518.44;4957793;28;20378;-89
2023/02/06 19:23:20;;;;;;;;;;;;;;;8.63;100.00;101519.34;4951546;28;19965;-89
2023/02/06 19:25:45;;;;;;;;;;;;;;;8.63;100.00;101513.16;4975382;28;19918;-89
2023/02/06 19:28:11;;;;;;;;;;;;;;;8.62;100.00;101512.31;4975208;28;20380;-90
2023/02/06 19:30:36;;;;;;;;;;;;;;;8.62;100.00;101512.31;4956378;28;19957;-89
2023/02/06 19:33:01;;;;;;;;;;;;;;;8.64;100.00;101509.66;4955922;28;20374;-90
2023/02/06 19:35:27;;;;;;;;;;;;;;;8.62;100.00;101511.44;4957635;28;20285;-88
2023/02/06 19:37:52;;;;;;;;;;;;;;;8.63;100.00;101518.44;4975031;28;19922;-88
2023/02/06 19:40:17;;;;;;;;;;;;;;;8.63;100.00;101521.09;4957131;28;20328;-89
2023/02/06 19:42:43;;;;;;;;;;;;;;;8.63;100.00;101513.16;4957730;28;19922;-89
2023/02/06 19:45:08;;;;;;;;;;;;;;;8.62;100.00;101522.88;4974928;28;19922;-88
2023/02/06 19:47:33;;;;;;;;;;;;;;;8.63;100.00;101523.75;4972228;28;19930;-88
2023/02/06 19:49:59;;;;;;;;;;;;;;;8.64;100.00;101526.38;4957550;28;19928;-89
2023/02/06 19:52:27;;;;;;;;;;;;;;;8.64;100.00;101530.78;4956779;28;20358;-90
2023/02/06 19:54:52;;;;;;;;;;;;;;;8.62;100.00;101532.56;4957491;28;19984;-88
2023/02/06 19:57:18;;;;;;;;;;;;;;;8.62;100.00;101524.66;4956747;28;20361;-89
2023/02/06 19:59:52;;;;;;;;;;;;;;;8.62;100.00;101522.00;4957213;28;20412;-90
2023/02/06 20:02:20;;;;;;;;;;;;;;;8.61;100.00;101528.16;4956487;28;19918;-91
2023/02/06 20:04:46;;;;;;;;;;;;;;;8.61;100.00;101536.09;4974186;28;19929;-88
2023/02/06 20:07:11;;;;;;;;;;;;;;;8.61;100.00;101536.09;4956978;28;19918;-88
2023/02/06 20:09:40;;;;;;;;;;;;;;;8.61;100.00;101522.88;4973790;28;19923;-88
2023/02/06 20:12:08;;;;;;;;;;;;;;;8.61;100.00;101542.25;4957319;28;19933;-88
2023/02/06 20:14:34;;;;;;;;;;;;;;;8.62;100.00;101532.56;4957264;28;20067;-91
2023/02/06 20:16:59;;;;;;;;;;;;;;;8.62;100.00;101533.44;4971487;28;19922;-89
2023/02/06 20:19:26;;;;;;;;;;;;;;;8.62;100.00;101532.56;4957211;28;19933;-89
2023/02/06 20:21:55;;;;;;;;;;;;;;;8.62;100.00;101543.16;4974572;28;20370;-87
2023/02/06 20:24:23;;;;;;;;;;;;;;;8.62;100.00;101535.22;4956422;28;19928;-89
2023/02/06 20:26:50;;;;;;;;;;;;;;;8.61;100.00;101536.97;4974500;28;20013;-88
2023/02/06 20:29:20;;;;;;;;;;;;;;;8.61;100.00;101536.97;4974384;28;19950;-88
2023/02/06 20:31:46;;;;;;;;;;;;;;;8.62;100.00;101545.78;4972052;28;19953;-88
2023/02/06 20:34:11;;;;;;;;;;;;;;;8.62;100.00;101543.16;4956239;28;20388;-88
2023/02/06 20:36:37;;;;;;;;;;;;;;;8.62;100.00;101544.00;4951947;28;19926;-89
2023/02/06 20:39:02;;;;;;;;;;;;;;;8.63;100.00;101552.81;4955250;28;19929;-87
2023/02/06 20:41:29;;;;;;;;;;;;;;;8.63;100.00;101553.72;4956941;28;19919;-88
2023/02/06 20:43:56;;;;;;;;;;;;;;;8.64;100.00;101562.50;4957184;28;19925;-87
2023/02/06 20:46:21;;;;;;;;;;;;;;;8.64;100.00;101562.50;4955719;28;19926;-90
2023/02/06 20:48:53;;;;;;;;;;;;;;;8.62;100.00;101554.59;4974170;28;20341;-89
2023/02/06 20:51:18;;;;;;;;;;;;;;;8.62;100.00;101557.22;4956916;28;19922;-89
2023/02/06 20:53:44;;;;;;;;;;;;;;;8.63;100.00;101556.34;4953348;29;19949;-90
2023/02/06 20:56:10;;;;;;;;;;;;;;;8.63;100.00;101563.38;4954704;28;19973;-90
2023/02/06 20:58:35;;;;;;;;;;;;;;;8.64;100.00;101562.50;4957121;28;19919;-89
2023/02/06 21:01:01;;;;;;;;;;;;;;;8.64;100.00;101559.84;4969843;28;19918;-91
2023/02/06 21:03:29;;;;;;;;;;;;;;;8.64;100.00;101562.50;4974970;28;20005;-91
2023/02/06 21:05:55;;;;;;;;;;;;;;;8.64;100.00;101567.78;4955677;28;19933;-88
2023/02/06 21:08:21;;;;;;;;;;;;;;;8.64;100.00;101571.28;4956648;28;19925;-89
2023/02/06 21:10:49;;;;;;;;;;;;;;;8.63;100.00;101574.84;4953155;29;20282;-90
2023/02/06 21:13:14;;;;;;;;;;;;;;;8.63;100.00;101568.66;4938157;29;19918;-91
2023/02/06 21:15:39;;;;;;;;;;;;;;;8.63;100.00;101571.31;4937536;28;19925;-91
2023/02/06 21:18:05;;;;;;;;;;;;;;;8.63;100.00;101566.91;4955420;28;20053;-92
2023/02/06 21:20:30;;;;;;;;;;;;;;;8.63;100.00;101579.22;4958037;28;19922;-93
2023/02/06 21:22:55;;;;;;;;;;;;;;;8.62;100.00;101564.28;4957789;28;19926;-90
2023/02/06 21:25:21;;;;;;;;;;;;;;;8.63;100.00;101568.66;4957728;28;19918;-88
2023/02/06 21:27:46;;;;;;;;;;;;;;;8.63;100.00;101560.72;4954507;29;20400;-90
2023/02/06 21:30:11;;;;;;;;;;;;;;;8.64;100.00;101557.22;4970984;28;19925;-86
2023/02/06 21:32:37;;;;;;;;;;;;;;;8.63;100.00;101561.63;4976474;28;19922;-94
2023/02/06 21:35:03;;;;;;;;;;;;;;;8.63;100.00;101564.28;4978729;28;20429;-90
2023/02/06 21:37:28;;;;;;;;;;;;;;;8.62;100.00;101561.66;4976210;28;19926;-90
2023/02/06 21:39:53;;;;;;;;;;;;;;;8.63;100.00;101556.34;4960771;28;20317;-86
2023/02/06 21:42:24;;;;;;;;;;;;;;;8.62;100.00;101554.59;4960005;28;19929;-89
2023/02/06 21:44:50;;;;;;;;;;;;;;;8.61;100.00;101557.22;4977552;28;19973;-90
2023/02/06 21:47:15;;;;;;;;;;;;;;;8.62;100.00;101556.34;4958878;28;19918;-93
2023/02/06 21:49:40;;;;;;;;;;;;;;;8.61;100.00;101547.53;4960436;28;20384;-89
2023/02/06 21:52:06;;;;;;;;;;;;;;;8.61;100.00;101536.09;4977467;28;19954;-91
2023/02/06 21:54:31;;;;;;;;;;;;;;;8.61;100.00;101530.81;4959786;28;19918;-92